createdAt,value
2018-07-30T00:01:03.473Z,24.29
2018-07-30T00:03:32.302Z,24.31
2018-07-30T00:06:00.669Z,24.27
2018-07-30T00:08:29.066Z,24.25
2018-07-30T00:10:57.393Z,24.25
2018-07-30T00:13:25.748Z,24.22
2018-07-30T00:15:54.080Z,24.19
2018-07-30T00:18:22.549Z,24.16
2018-07-30T00:20:50.886Z,24.13
2018-07-30T00:23:19.232Z,24.11
2018-07-30T00:25:47.571Z,24.11
2018-07-30T00:28:15.903Z,24.16
2018-07-30T00:30:44.232Z,24.11
2018-07-30T00:33:12.577Z,24.11
2018-07-30T00:35:41.057Z,24.06
2018-07-30T00:38:09.388Z,24.08
2018-07-30T00:40:37.735Z,24.01
2018-07-30T00:43:06.056Z,24.01
2018-07-30T00:45:34.411Z,24.01
2018-07-30T00:48:02.752Z,23.99
2018-07-30T00:50:31.108Z,24.01
2018-07-30T00:52:59.449Z,23.99
2018-07-30T00:55:27.811Z,23.97
2018-07-30T00:57:56.324Z,23.98
2018-07-30T01:00:24.643Z,23.98
2018-07-30T01:02:52.977Z,23.94
2018-07-30T01:05:21.302Z,23.95
2018-07-30T01:07:49.648Z,23.93
2018-07-30T01:10:18.021Z,23.93
2018-07-30T01:12:46.355Z,23.94
2018-07-30T01:15:14.712Z,23.89
2018-07-30T01:17:43.056Z,23.87
2018-07-30T01:20:11.392Z,23.88
2018-07-30T01:22:39.747Z,23.95
2018-07-30T01:25:08.074Z,23.93
2018-07-30T01:27:36.422Z,23.87
2018-07-30T01:30:05.279Z,23.86
2018-07-30T01:32:33.595Z,23.86
2018-07-30T01:35:01.950Z,23.85
2018-07-30T01:37:30.265Z,23.86
2018-07-30T01:39:58.607Z,23.89
2018-07-30T01:42:26.954Z,23.92
2018-07-30T01:44:55.283Z,23.86
2018-07-30T01:47:23.605Z,23.82
2018-07-30T01:49:51.967Z,23.79
2018-07-30T01:52:20.315Z,23.83
2018-07-30T01:54:48.622Z,23.81
2018-07-30T01:57:16.951Z,23.80
2018-07-30T01:59:45.324Z,23.77
2018-07-30T02:02:13.653Z,23.80
2018-07-30T02:04:42.009Z,23.75
2018-07-30T02:07:10.390Z,23.74
2018-07-30T02:09:38.716Z,23.75
2018-07-30T02:12:07.078Z,23.72
2018-07-30T02:14:35.423Z,23.75
2018-07-30T02:17:03.773Z,23.75
2018-07-30T02:19:32.117Z,23.70
2018-07-30T02:22:00.437Z,23.70
2018-07-30T02:24:28.762Z,23.64
2018-07-30T02:26:57.108Z,23.61
2018-07-30T02:29:25.426Z,23.54
2018-07-30T02:31:53.749Z,23.56
2018-07-30T02:34:22.070Z,23.57
2018-07-30T02:36:50.410Z,23.58
2018-07-30T02:39:18.722Z,23.58
2018-07-30T02:41:47.074Z,23.59
2018-07-30T02:44:15.400Z,23.62
2018-07-30T02:46:43.751Z,23.56
2018-07-30T02:49:12.194Z,23.52
2018-07-30T02:51:40.568Z,23.48
2018-07-30T02:54:09.175Z,23.50
2018-07-30T02:56:37.537Z,23.51
2018-07-30T02:59:05.873Z,23.51
2018-07-30T03:01:34.218Z,23.50
2018-07-30T03:04:02.595Z,23.49
2018-07-30T03:06:30.973Z,23.43
2018-07-30T03:08:59.330Z,23.46
2018-07-30T03:11:27.660Z,23.39
2018-07-30T03:13:55.984Z,23.43
2018-07-30T03:16:24.332Z,23.36
2018-07-30T03:18:52.743Z,23.36
2018-07-30T03:21:21.044Z,23.35
2018-07-30T03:23:49.360Z,23.31
2018-07-30T03:26:17.727Z,23.32
2018-07-30T03:28:46.177Z,23.36
2018-07-30T03:31:14.530Z,23.25
2018-07-30T03:33:42.854Z,23.27
2018-07-30T03:36:11.197Z,23.27
2018-07-30T03:38:39.555Z,23.25
2018-07-30T03:41:07.893Z,23.22
2018-07-30T03:43:36.227Z,23.21
2018-07-30T03:46:04.561Z,23.21
2018-07-30T03:48:32.881Z,23.20
2018-07-30T03:51:01.233Z,23.18
2018-07-30T03:53:29.580Z,23.16
2018-07-30T03:55:57.950Z,23.10
2018-07-30T03:58:26.262Z,23.04
2018-07-30T04:00:54.571Z,23.07
2018-07-30T04:03:22.903Z,23.08
2018-07-30T04:05:51.467Z,23.12
2018-07-30T04:08:19.814Z,23.08
2018-07-30T04:10:48.123Z,23.07
2018-07-30T04:13:16.466Z,23.08
2018-07-30T04:15:44.799Z,23.12
2018-07-30T04:18:13.143Z,23.07
2018-07-30T04:20:41.505Z,23.10
2018-07-30T04:23:09.865Z,23.12
2018-07-30T04:25:38.244Z,23.14
2018-07-30T04:28:06.614Z,23.15
2018-07-30T04:30:35.024Z,23.10
2018-07-30T04:33:03.940Z,23.15
2018-07-30T04:35:32.271Z,23.16
2018-07-30T04:38:00.592Z,23.19
2018-07-30T04:40:28.938Z,23.21
2018-07-30T04:42:57.291Z,23.25
2018-07-30T04:45:25.626Z,23.22
2018-07-30T04:47:53.959Z,23.28
2018-07-30T04:50:22.369Z,23.32
2018-07-30T04:52:50.664Z,23.33
2018-07-30T04:55:19.027Z,23.32
2018-07-30T04:57:47.427Z,23.35
2018-07-30T05:00:15.808Z,23.37
2018-07-30T05:02:44.128Z,23.33
2018-07-30T05:05:12.519Z,23.41
2018-07-30T05:07:41.432Z,23.45
2018-07-30T05:10:09.747Z,23.50
2018-07-30T05:12:38.107Z,23.50
2018-07-30T05:15:06.466Z,23.55
2018-07-30T05:17:34.816Z,23.55
2018-07-30T05:20:03.142Z,23.62
2018-07-30T05:22:31.522Z,23.68
2018-07-30T05:24:59.908Z,23.67
2018-07-30T05:27:28.264Z,23.68
2018-07-30T05:29:56.629Z,23.75
2018-07-30T05:32:25.038Z,23.77
2018-07-30T05:34:53.414Z,23.71
2018-07-30T05:37:21.816Z,23.67
2018-07-30T05:39:50.170Z,23.69
2018-07-30T05:42:18.490Z,23.69
2018-07-30T05:44:46.831Z,23.72
2018-07-30T05:47:15.164Z,23.74
2018-07-30T05:49:43.469Z,23.73
2018-07-30T05:52:11.802Z,23.72
2018-07-30T05:54:40.143Z,23.83
2018-07-30T05:57:08.721Z,23.86
2018-07-30T05:59:37.167Z,23.95
2018-07-30T06:02:05.419Z,23.97
2018-07-30T06:04:33.757Z,23.93
2018-07-30T06:07:02.118Z,23.98
2018-07-30T06:09:30.467Z,23.97
2018-07-30T06:11:58.806Z,23.96
2018-07-30T06:14:27.126Z,24.02
2018-07-30T06:16:55.456Z,24.07
2018-07-30T06:19:23.779Z,24.08
2018-07-30T06:21:52.117Z,24.14
2018-07-30T06:24:20.472Z,24.04
2018-07-30T06:26:48.819Z,24.19
2018-07-30T06:29:17.151Z,24.22
2018-07-30T06:31:45.514Z,24.19
2018-07-30T06:34:13.878Z,24.33
2018-07-30T06:36:42.256Z,24.27
2018-07-30T06:39:11.250Z,24.31
2018-07-30T06:41:39.841Z,24.42
2018-07-30T06:44:08.213Z,24.45
2018-07-30T06:46:36.929Z,24.51
2018-07-30T06:49:05.846Z,24.59
2018-07-30T06:51:34.257Z,24.74
2018-07-30T06:54:02.577Z,24.94
2018-07-30T06:56:30.912Z,24.84
2018-07-30T06:58:59.240Z,25.00
2018-07-30T07:01:27.580Z,25.00
2018-07-30T07:03:55.931Z,25.15
2018-07-30T07:06:24.281Z,25.51
2018-07-30T07:08:52.639Z,26.01
2018-07-30T07:11:20.995Z,26.11
2018-07-30T07:13:49.335Z,26.12
2018-07-30T07:16:17.714Z,25.99
2018-07-30T07:18:46.063Z,26.01
2018-07-30T07:21:14.476Z,25.91
2018-07-30T07:23:42.832Z,25.79
2018-07-30T07:26:11.186Z,25.97
2018-07-30T07:28:39.553Z,26.16
2018-07-30T07:31:07.901Z,26.87
2018-07-30T07:33:36.236Z,27.85
2018-07-30T07:36:04.712Z,28.87
2018-07-30T07:38:33.131Z,29.87
2018-07-30T07:41:01.465Z,31.29
2018-07-30T07:43:29.819Z,32.79
2018-07-30T07:45:58.194Z,33.25
2018-07-30T07:48:26.515Z,32.90
2018-07-30T07:50:55.144Z,33.76
2018-07-30T07:53:23.235Z,35.09
2018-07-30T07:55:51.556Z,34.20
2018-07-30T07:58:19.940Z,33.65
2018-07-30T08:00:48.266Z,34.75
2018-07-30T08:03:16.644Z,36.61
2018-07-30T08:05:45.026Z,37.15
2018-07-30T08:08:13.372Z,35.92
2018-07-30T08:10:41.709Z,38.01
2018-07-30T08:13:10.077Z,37.69
2018-07-30T08:15:38.429Z,38.17
2018-07-30T08:18:06.780Z,38.10
2018-07-30T08:20:35.157Z,37.12
2018-07-30T08:23:03.487Z,35.67
2018-07-30T08:25:31.848Z,35.83
2018-07-30T08:28:00.227Z,36.51
2018-07-30T08:30:28.560Z,36.74
2018-07-30T08:32:56.889Z,36.84
2018-07-30T08:35:25.230Z,38.00
2018-07-30T08:37:53.611Z,38.44
2018-07-30T08:40:21.994Z,39.28
2018-07-30T08:42:50.326Z,39.19
2018-07-30T08:45:18.676Z,38.39
2018-07-30T08:47:47.055Z,39.43
2018-07-30T08:50:15.433Z,40.62
2018-07-30T08:52:43.783Z,40.04
2018-07-30T08:55:12.142Z,39.20
2018-07-30T08:57:40.488Z,39.51
2018-07-30T09:00:09.699Z,39.12
2018-07-30T09:02:38.485Z,38.91
2018-07-30T09:05:06.936Z,39.70
2018-07-30T09:07:35.444Z,40.00
2018-07-30T09:10:03.824Z,40.87
2018-07-30T09:12:32.188Z,41.58
2018-07-30T09:15:00.553Z,41.66
2018-07-30T09:17:28.909Z,43.46
2018-07-30T09:19:57.246Z,43.31
2018-07-30T09:22:25.659Z,42.21
2018-07-30T09:24:54.173Z,42.80
2018-07-30T09:27:22.659Z,42.89
2018-07-30T09:29:51.013Z,42.18
2018-07-30T09:32:19.331Z,41.97
2018-07-30T09:34:47.663Z,41.81
2018-07-30T09:37:16.038Z,40.27
2018-07-30T09:39:44.371Z,40.81
2018-07-30T09:42:12.748Z,39.99
2018-07-30T09:44:41.089Z,38.75
2018-07-30T09:47:09.514Z,39.28
2018-07-30T09:49:37.861Z,39.98
2018-07-30T09:52:06.241Z,40.64
2018-07-30T09:54:34.588Z,40.42
2018-07-30T09:57:03.003Z,39.41
2018-07-30T09:59:31.339Z,40.64
2018-07-30T10:01:59.670Z,41.60
2018-07-30T10:04:28.009Z,42.90
2018-07-30T10:06:56.464Z,41.77
2018-07-30T10:09:24.774Z,40.89
2018-07-30T10:11:55.958Z,41.54
2018-07-30T10:14:24.894Z,41.51
2018-07-30T10:16:53.745Z,42.03
2018-07-30T10:19:22.059Z,44.13
2018-07-30T10:21:50.408Z,42.34
2018-07-30T10:24:18.745Z,43.89
2018-07-30T10:26:47.078Z,44.30
2018-07-30T10:29:15.468Z,43.85
2018-07-30T10:31:43.820Z,43.33
2018-07-30T10:34:12.146Z,43.69
2018-07-30T10:36:40.472Z,42.15
2018-07-30T10:39:09.350Z,43.84
2018-07-30T10:41:37.683Z,44.06
2018-07-30T10:44:06.048Z,41.43
2018-07-30T10:46:34.367Z,40.89
2018-07-30T10:49:02.687Z,40.33
2018-07-30T10:51:31.021Z,39.44
2018-07-30T10:53:59.414Z,38.69
2018-07-30T10:56:27.729Z,37.97
2018-07-30T10:58:56.074Z,36.82
2018-07-30T11:01:24.446Z,36.99
2018-07-30T11:03:53.088Z,36.53
2018-07-30T11:06:21.405Z,35.79
2018-07-30T11:08:49.743Z,35.91
2018-07-30T11:11:18.089Z,35.22
2018-07-30T11:13:46.405Z,35.34
2018-07-30T11:16:14.738Z,35.17
2018-07-30T11:18:43.070Z,35.07
2018-07-30T11:21:11.423Z,34.82
2018-07-30T11:23:39.755Z,34.37
2018-07-30T11:26:08.108Z,34.22
2018-07-30T11:28:36.520Z,33.46
2018-07-30T11:31:04.876Z,33.38
2018-07-30T11:33:33.230Z,33.28
2018-07-30T11:36:01.576Z,33.39
2018-07-30T11:38:29.919Z,33.20
2018-07-30T11:40:58.237Z,33.36
2018-07-30T11:43:26.575Z,33.11
2018-07-30T11:45:54.888Z,33.13
2018-07-30T11:48:23.299Z,32.97
2018-07-30T11:50:51.615Z,32.76
2018-07-30T11:53:19.956Z,32.70
2018-07-30T11:55:49.226Z,32.68
2018-07-30T11:58:17.792Z,32.49
2018-07-30T12:00:46.151Z,32.61
2018-07-30T12:03:14.499Z,32.36
2018-07-30T12:05:43.701Z,32.31
2018-07-30T12:08:12.055Z,32.30
2018-07-30T12:10:40.436Z,32.42
2018-07-30T12:13:08.833Z,32.40
2018-07-30T12:15:37.171Z,32.40
2018-07-30T12:18:05.510Z,32.20
2018-07-30T12:20:33.829Z,32.30
2018-07-30T12:23:02.172Z,32.21
2018-07-30T12:25:30.522Z,32.27
2018-07-30T12:27:58.860Z,32.31
2018-07-30T12:30:27.215Z,32.29
2018-07-30T12:32:55.552Z,32.27
2018-07-30T12:35:23.899Z,32.27
2018-07-30T12:37:52.244Z,32.15
2018-07-30T12:40:20.608Z,32.19
2018-07-30T12:42:48.948Z,32.17
2018-07-30T12:45:21.474Z,32.23
2018-07-30T12:47:49.807Z,32.25
2018-07-30T12:50:18.147Z,32.17
2018-07-30T12:52:46.474Z,32.13
2018-07-30T12:55:14.820Z,32.19
2018-07-30T12:57:43.233Z,32.17
2018-07-30T13:00:11.578Z,32.21
2018-07-30T13:02:39.924Z,32.21
2018-07-30T13:05:08.267Z,32.13
2018-07-30T13:07:36.617Z,32.08
2018-07-30T13:10:04.986Z,32.16
2018-07-30T13:12:33.337Z,32.22
2018-07-30T13:15:01.680Z,32.19
2018-07-30T13:17:30.013Z,32.24
2018-07-30T13:19:58.319Z,32.27
2018-07-30T13:22:26.674Z,32.33
2018-07-30T13:24:55.027Z,32.34
2018-07-30T13:27:23.435Z,32.37
2018-07-30T13:29:51.823Z,32.40
2018-07-30T13:32:20.165Z,32.31
2018-07-30T13:34:48.534Z,32.35
2018-07-30T13:37:16.885Z,32.42
2018-07-30T13:39:45.268Z,32.28
2018-07-30T13:42:13.603Z,32.23
2018-07-30T13:44:42.025Z,32.22
2018-07-30T13:47:10.365Z,32.10
2018-07-30T13:49:38.708Z,32.23
2018-07-30T13:52:07.064Z,32.22
2018-07-30T13:54:35.493Z,32.17
2018-07-30T13:57:03.817Z,32.19
2018-07-30T13:59:32.202Z,32.16
2018-07-30T14:02:00.580Z,32.14
2018-07-30T14:04:28.958Z,32.11
2018-07-30T14:06:57.296Z,32.06
2018-07-30T14:09:27.049Z,32.03
2018-07-30T14:11:55.422Z,32.06
2018-07-30T14:14:23.800Z,32.11
2018-07-30T14:16:52.240Z,32.10
2018-07-30T14:19:20.619Z,32.06
2018-07-30T14:21:48.974Z,32.04
2018-07-30T14:24:17.318Z,31.99
2018-07-30T14:26:45.653Z,31.98
2018-07-30T14:29:14.068Z,31.95
2018-07-30T14:31:42.367Z,31.89
2018-07-30T14:34:10.733Z,31.92
2018-07-30T14:36:39.112Z,31.98
2018-07-30T14:39:09.184Z,31.93
2018-07-30T14:41:37.608Z,31.91
2018-07-30T14:44:05.989Z,31.97
2018-07-30T14:46:34.353Z,31.91
2018-07-30T14:49:02.708Z,31.93
2018-07-30T14:51:31.088Z,31.92
2018-07-30T14:53:59.493Z,31.93
2018-07-30T14:56:27.822Z,31.98
2018-07-30T14:58:56.170Z,31.92
2018-07-30T15:01:24.509Z,31.93
2018-07-30T15:03:52.850Z,31.91
2018-07-30T15:06:21.168Z,31.87
2018-07-30T15:08:49.528Z,31.87
2018-07-30T15:11:17.869Z,31.85
2018-07-30T15:13:46.216Z,31.86
2018-07-30T15:16:14.601Z,31.85
2018-07-30T15:18:42.944Z,31.87
2018-07-30T15:21:11.328Z,31.86
2018-07-30T15:23:39.647Z,31.82
2018-07-30T15:26:07.980Z,31.78
2018-07-30T15:28:36.329Z,31.76
2018-07-30T15:31:04.670Z,31.74
2018-07-30T15:33:33.056Z,31.81
2018-07-30T15:36:01.386Z,31.77
2018-07-30T15:38:29.703Z,31.77
2018-07-30T15:40:58.018Z,31.74
2018-07-30T15:43:26.824Z,31.77
2018-07-30T15:45:55.191Z,31.69
2018-07-30T15:48:23.508Z,31.71
2018-07-30T15:50:51.852Z,31.73
2018-07-30T15:53:20.280Z,31.74
2018-07-30T15:55:48.613Z,31.73
2018-07-30T15:58:16.948Z,31.68
2018-07-30T16:00:45.279Z,31.66
2018-07-30T16:03:13.662Z,31.64
2018-07-30T16:05:42.124Z,31.63
2018-07-30T16:08:10.380Z,31.61
2018-07-30T16:10:38.704Z,31.60
2018-07-30T16:13:07.079Z,31.59
2018-07-30T16:15:35.416Z,31.52
2018-07-30T16:18:03.777Z,31.53
2018-07-30T16:20:32.125Z,31.55
2018-07-30T16:23:00.468Z,31.54
2018-07-30T16:25:28.804Z,31.54
2018-07-30T16:27:57.159Z,31.53
2018-07-30T16:30:25.550Z,31.50
2018-07-30T16:32:53.900Z,31.49
2018-07-30T16:35:22.268Z,31.48
2018-07-30T16:37:50.765Z,31.46
2018-07-30T16:40:19.117Z,31.43
2018-07-30T16:42:47.723Z,31.40
2018-07-30T16:45:16.081Z,31.43
2018-07-30T16:47:44.429Z,31.40
2018-07-30T16:50:12.792Z,31.31
2018-07-30T16:52:41.148Z,31.31
2018-07-30T16:55:09.502Z,31.32
2018-07-30T16:57:37.890Z,31.32
2018-07-30T17:00:08.658Z,31.27
2018-07-30T17:02:37.028Z,31.28
2018-07-30T17:05:05.844Z,31.28
2018-07-30T17:07:34.213Z,31.26
2018-07-30T17:10:02.576Z,31.22
2018-07-30T17:12:30.949Z,31.21
2018-07-30T17:14:59.295Z,31.16
2018-07-30T17:17:27.612Z,31.16
2018-07-30T17:19:56.051Z,31.16
2018-07-30T17:22:24.383Z,31.11
2018-07-30T17:24:52.713Z,31.10
2018-07-30T17:27:21.024Z,31.08
2018-07-30T17:29:49.456Z,31.03
2018-07-30T17:32:17.776Z,31.01
2018-07-30T17:34:46.133Z,31.00
2018-07-30T17:37:14.464Z,30.97
2018-07-30T17:39:42.806Z,30.89
2018-07-30T17:42:11.158Z,30.87
2018-07-30T17:44:39.529Z,30.86
2018-07-30T17:47:07.944Z,30.84
2018-07-30T17:49:36.291Z,30.81
2018-07-30T17:52:04.632Z,30.77
2018-07-30T17:54:32.997Z,30.72
2018-07-30T17:57:01.325Z,30.70
2018-07-30T17:59:29.659Z,30.66
2018-07-30T18:01:57.992Z,30.62
2018-07-30T18:04:26.360Z,30.57
2018-07-30T18:06:54.670Z,30.54
2018-07-30T18:09:22.999Z,30.48
2018-07-30T18:11:51.345Z,30.46
2018-07-30T18:14:19.674Z,30.42
2018-07-30T18:16:48.017Z,30.40
2018-07-30T18:19:16.361Z,30.36
2018-07-30T18:21:44.719Z,30.33
2018-07-30T18:24:13.087Z,30.32
2018-07-30T18:26:41.439Z,30.28
2018-07-30T18:29:09.809Z,30.22
2018-07-30T18:31:38.152Z,30.20
2018-07-30T18:34:06.472Z,30.17
2018-07-30T18:36:34.879Z,30.13
2018-07-30T18:39:03.365Z,30.08
2018-07-30T18:41:31.710Z,30.05
2018-07-30T18:44:00.034Z,30.02
2018-07-30T18:46:28.416Z,29.97
2018-07-30T18:48:56.749Z,29.96
2018-07-30T18:51:25.120Z,29.92
2018-07-30T18:53:53.447Z,29.90
2018-07-30T18:56:21.788Z,29.87
2018-07-30T18:58:50.133Z,29.83
2018-07-30T19:01:18.463Z,29.80
2018-07-30T19:03:46.948Z,29.74
2018-07-30T19:06:15.296Z,29.69
2018-07-30T19:08:43.632Z,29.67
2018-07-30T19:11:11.965Z,29.64
2018-07-30T19:13:40.297Z,29.56
2018-07-30T19:16:08.679Z,29.53
2018-07-30T19:18:37.009Z,29.45
2018-07-30T19:21:05.426Z,29.46
2018-07-30T19:23:33.770Z,29.40
2018-07-30T19:26:02.120Z,29.37
2018-07-30T19:28:30.454Z,29.35
2018-07-30T19:30:58.770Z,29.30
2018-07-30T19:33:27.121Z,29.29
2018-07-30T19:35:55.464Z,29.20
2018-07-30T19:38:23.889Z,29.22
2018-07-30T19:40:52.233Z,29.17
2018-07-30T19:43:20.594Z,29.11
2018-07-30T19:45:48.926Z,29.08
2018-07-30T19:48:17.302Z,29.10
2018-07-30T19:50:45.722Z,29.04
2018-07-30T19:53:14.067Z,29.02
2018-07-30T19:55:42.444Z,28.94
2018-07-30T19:58:10.991Z,28.92
2018-07-30T20:00:39.180Z,28.86
2018-07-30T20:03:07.565Z,28.84
2018-07-30T20:05:36.007Z,28.81
2018-07-30T20:08:04.359Z,28.80
2018-07-30T20:10:32.705Z,28.75
2018-07-30T20:13:01.116Z,28.73
2018-07-30T20:15:29.479Z,28.74
2018-07-30T20:17:58.264Z,28.73
2018-07-30T20:20:26.592Z,28.73
2018-07-30T20:22:54.969Z,28.71
2018-07-30T20:25:23.349Z,28.69
2018-07-30T20:27:51.698Z,28.63
2018-07-30T20:30:20.110Z,28.64
2018-07-30T20:32:48.456Z,28.61
2018-07-30T20:35:16.812Z,28.60
2018-07-30T20:37:45.975Z,28.60
2018-07-30T20:40:14.577Z,28.56
2018-07-30T20:42:43.039Z,28.52
2018-07-30T20:45:11.420Z,28.52
2018-07-30T20:47:39.756Z,28.47
2018-07-30T20:50:08.108Z,28.45
2018-07-30T20:52:36.476Z,28.43
2018-07-30T20:55:04.891Z,28.41
2018-07-30T20:57:33.370Z,28.38
2018-07-30T21:00:01.750Z,28.34
2018-07-30T21:02:30.134Z,28.28
2018-07-30T21:04:58.507Z,28.27
2018-07-30T21:07:26.886Z,28.23
2018-07-30T21:09:55.354Z,28.19
2018-07-30T21:12:23.715Z,28.14
2018-07-30T21:14:52.097Z,28.09
2018-07-30T21:17:20.507Z,28.00
2018-07-30T21:19:48.845Z,27.97
2018-07-30T21:22:17.224Z,27.91
2018-07-30T21:24:45.566Z,27.90
2018-07-30T21:27:13.881Z,27.87
2018-07-30T21:29:42.226Z,27.76
2018-07-30T21:32:10.574Z,27.70
2018-07-30T21:34:38.915Z,27.67
2018-07-30T21:37:07.257Z,27.56
2018-07-30T21:39:35.609Z,27.57
2018-07-30T21:42:03.949Z,27.52
2018-07-30T21:44:32.295Z,27.47
2018-07-30T21:47:00.613Z,27.46
2018-07-30T21:49:28.951Z,27.36
2018-07-30T21:51:57.268Z,27.34
2018-07-30T21:54:25.619Z,27.24
2018-07-30T21:56:53.985Z,27.20
2018-07-30T21:59:22.463Z,27.15
2018-07-30T22:01:50.815Z,27.13
2018-07-30T22:04:19.193Z,27.04
2018-07-30T22:06:47.576Z,27.07
2018-07-30T22:09:15.956Z,26.99
2018-07-30T22:11:44.328Z,26.98
2018-07-30T22:14:12.712Z,26.89
2018-07-30T22:16:41.055Z,26.91
2018-07-30T22:19:09.431Z,26.85
2018-07-30T22:21:37.845Z,26.79
2018-07-30T22:24:06.384Z,26.74
2018-07-30T22:26:34.722Z,26.69
2018-07-30T22:29:03.085Z,26.64
2018-07-30T22:31:31.432Z,26.63
2018-07-30T22:33:59.759Z,26.61
2018-07-30T22:36:28.123Z,26.54
2018-07-30T22:38:56.455Z,26.47
2018-07-30T22:41:24.808Z,26.49
2018-07-30T22:43:53.140Z,26.41
2018-07-30T22:46:21.501Z,26.33
2018-07-30T22:48:49.859Z,26.39
2018-07-30T22:51:18.219Z,26.36
2018-07-30T22:53:46.552Z,26.26
2018-07-30T22:56:14.871Z,26.24
2018-07-30T22:58:43.179Z,26.14
2018-07-30T23:01:11.532Z,26.12
2018-07-30T23:03:39.863Z,26.07
2018-07-30T23:06:08.206Z,26.00
2018-07-30T23:08:36.539Z,26.01
2018-07-30T23:11:04.880Z,26.02
2018-07-30T23:13:33.259Z,25.93
2018-07-30T23:16:01.658Z,25.94
2018-07-30T23:18:29.982Z,25.86
2018-07-30T23:20:58.310Z,25.84
2018-07-30T23:23:26.736Z,25.86
2018-07-30T23:25:55.053Z,25.82
2018-07-30T23:28:23.395Z,25.78
2018-07-30T23:30:51.725Z,25.77
2018-07-30T23:33:20.088Z,25.73
2018-07-30T23:35:48.434Z,25.66
2018-07-30T23:38:16.761Z,25.69
2018-07-30T23:40:45.093Z,25.60
2018-07-30T23:43:13.416Z,25.61
2018-07-30T23:45:42.788Z,25.59
2018-07-30T23:48:11.130Z,25.58
2018-07-30T23:50:39.456Z,25.53
2018-07-30T23:53:07.796Z,25.49
2018-07-30T23:55:36.129Z,25.40
2018-07-30T23:58:04.479Z,25.43
